Time;durP1;ratioP1;P1;durP2;ratioP2;P2;SDS_P1;SDS_P2;PMS_P1;PMS_P2;Temp;Humidity;BMP_temperature;BMP_pressure;BME280_temperature;BME280_humidity;BME280_pressure;Samples;Min_cycle;Max_cycle;Signal;HPM_P1;HPM_P2
2023/07/22 00:00:14;;;;;;;14.52;6.15;;;13.80;99.90;;;;;;4981317;28;20069;-69
2023/07/22 00:02:39;;;;;;;12.45;5.22;;;13.80;99.90;;;;;;4979641;28;20179;-68
2023/07/22 00:05:05;;;;;;;13.27;6.10;;;13.80;99.90;;;;;;4987150;28;20038;-70
2023/07/22 00:07:31;;;;;;;12.27;5.80;;;13.80;99.90;;;;;;4989876;28;20494;-69
2023/07/22 00:09:56;;;;;;;11.27;5.13;;;13.90;99.90;;;;;;4963978;28;20049;-69
2023/07/22 00:12:25;;;;;;;14.52;5.25;;;13.90;99.90;;;;;;4964279;28;20782;-68
2023/07/22 00:14:51;;;;;;;17.00;6.10;;;13.90;99.90;;;;;;4972526;28;20026;-69
2023/07/22 00:17:17;;;;;;;14.30;6.22;;;13.80;99.90;;;;;;4969236;28;20043;-69
2023/07/22 00:19:42;;;;;;;13.60;6.28;;;13.80;99.90;;;;;;4989923;28;20034;-69
2023/07/22 00:22:08;;;;;;;12.98;6.30;;;13.80;99.90;;;;;;4984509;28;20133;-69
2023/07/22 00:24:33;;;;;;;13.02;6.28;;;13.80;99.90;;;;;;4986846;28;20073;-69
2023/07/22 00:26:59;;;;;;;12.90;5.57;;;13.80;99.90;;;;;;4986435;28;20041;-69
2023/07/22 00:29:25;;;;;;;14.73;6.55;;;13.80;99.90;;;;;;4970214;28;20073;-69
2023/07/22 00:31:50;;;;;;;18.05;6.82;;;13.80;99.90;;;;;;4988027;28;20425;-69
2023/07/22 00:34:16;;;;;;;14.57;6.43;;;13.80;99.90;;;;;;4985674;28;20470;-69
2023/07/22 00:36:42;;;;;;;13.18;6.55;;;13.80;99.90;;;;;;5001352;28;20031;-69
2023/07/22 00:39:07;;;;;;;15.82;6.75;;;13.80;99.90;;;;;;4982877;28;20046;-70
2023/07/22 00:41:33;;;;;;;15.13;6.78;;;13.80;99.90;;;;;;4968591;28;20080;-68
2023/07/22 00:43:58;;;;;;;17.85;6.43;;;13.80;99.90;;;;;;4984012;28;20109;-69
2023/07/22 00:46:24;;;;;;;16.73;7.22;;;13.80;99.90;;;;;;4969510;28;20038;-69
2023/07/22 00:48:50;;;;;;;14.65;6.60;;;13.70;99.90;;;;;;4968007;28;20061;-69
2023/07/22 00:51:16;;;;;;;15.60;7.20;;;13.70;99.90;;;;;;4983660;28;20224;-69
2023/07/22 00:53:41;;;;;;;14.27;7.18;;;13.70;99.90;;;;;;4970193;28;20116;-68
2023/07/22 00:56:07;;;;;;;14.65;6.93;;;13.70;99.90;;;;;;4984673;28;20042;-70
2023/07/22 00:58:34;;;;;;;18.48;6.97;;;13.60;99.90;;;;;;4972189;28;20036;-70
2023/07/22 01:00:59;;;;;;;13.50;7.03;;;13.60;99.90;;;;;;4966251;28;20034;-70
2023/07/22 01:03:25;;;;;;;15.63;7.10;;;13.60;99.90;;;;;;4984776;28;20089;-69
2023/07/22 01:05:52;;;;;;;15.20;6.70;;;13.60;99.90;;;;;;4967170;28;20464;-69
2023/07/22 01:08:18;;;;;;;16.17;6.90;;;13.50;99.90;;;;;;4981283;28;20042;-68
2023/07/22 01:10:43;;;;;;;17.13;6.78;;;13.50;99.90;;;;;;4984983;28;20551;-69
2023/07/22 01:13:09;;;;;;;15.63;7.78;;;13.50;99.90;;;;;;4966256;28;20466;-69
2023/07/22 01:15:37;;;;;;;15.98;7.55;;;13.50;99.90;;;;;;4971740;28;20117;-69
2023/07/22 01:18:03;;;;;;;13.52;5.88;;;13.40;99.90;;;;;;4968774;28;20035;-69
2023/07/22 01:20:30;;;;;;;17.90;6.65;;;13.40;99.90;;;;;;4961746;28;20035;-69
2023/07/22 01:22:56;;;;;;;16.27;7.30;;;13.40;99.90;;;;;;4979602;28;20570;-69
2023/07/22 01:25:23;;;;;;;17.02;6.72;;;13.40;99.90;;;;;;4962726;28;20109;-70
2023/07/22 01:27:51;;;;;;;15.65;6.93;;;13.30;99.90;;;;;;4963630;28;20034;-69
2023/07/22 01:30:17;;;;;;;17.67;6.82;;;13.40;99.90;;;;;;4962364;28;20133;-68
2023/07/22 01:32:44;;;;;;;20.17;8.13;;;13.40;99.90;;;;;;4977641;28;20047;-68
2023/07/22 01:35:09;;;;;;;16.25;7.00;;;13.40;99.90;;;;;;4962845;28;20084;-68
2023/07/22 01:37:35;;;;;;;16.42;7.25;;;13.30;99.90;;;;;;4960635;28;20054;-70
2023/07/22 01:40:06;;;;;;;18.80;7.32;;;13.30;99.90;;;;;;4979943;28;20031;-69
2023/07/22 01:42:34;;;;;;;18.80;7.65;;;13.30;99.90;;;;;;4960788;28;20038;-71
2023/07/22 01:44:59;;;;;;;20.13;7.50;;;13.30;99.90;;;;;;4979255;28;20385;-71
2023/07/22 01:47:25;;;;;;;17.15;6.88;;;13.30;99.90;;;;;;4976406;28;20532;-69
2023/07/22 01:49:52;;;;;;;16.83;7.72;;;13.30;99.90;;;;;;4979628;28;20113;-70
2023/07/22 01:52:18;;;;;;;17.20;7.70;;;13.30;99.90;;;;;;4959610;28;20042;-70
2023/07/22 01:54:43;;;;;;;15.88;7.07;;;13.30;99.90;;;;;;4980730;28;20030;-69
2023/07/22 01:57:09;;;;;;;18.80;7.00;;;13.40;99.90;;;;;;4958621;28;20035;-69
2023/07/22 01:59:34;;;;;;;16.20;6.80;;;13.40;99.90;;;;;;4981206;28;20058;-68
2023/07/22 02:02:00;;;;;;;22.75;8.52;;;13.40;99.90;;;;;;4979536;28;20436;-69
2023/07/22 02:04:26;;;;;;;17.60;7.47;;;13.40;99.90;;;;;;4993256;28;20867;-70
2023/07/22 02:06:51;;;;;;;17.23;6.93;;;13.50;99.90;;;;;;4976810;28;20034;-71
2023/07/22 02:09:17;;;;;;;20.15;7.53;;;13.50;99.90;;;;;;4979809;28;20034;-71
2023/07/22 02:11:42;;;;;;;20.25;7.55;;;13.50;99.90;;;;;;4959784;28;20861;-69
2023/07/22 02:14:08;;;;;;;15.30;7.00;;;13.50;99.90;;;;;;4979406;28;20046;-68
2023/07/22 02:16:37;;;;;;;18.35;7.07;;;13.50;99.90;;;;;;4977431;28;20054;-69
2023/07/22 02:19:03;;;;;;;19.17;6.68;;;13.40;99.90;;;;;;4978727;28;20178;-69
2023/07/22 02:21:29;;;;;;;16.80;6.78;;;13.40;99.90;;;;;;4978017;28;20113;-69
2023/07/22 02:23:55;;;;;;;18.90;7.20;;;13.40;99.90;;;;;;4978166;28;20047;-68
2023/07/22 02:26:21;;;;;;;15.48;6.57;;;13.40;99.90;;;;;;4966039;28;20057;-69
2023/07/22 02:28:48;;;;;;;15.25;6.18;;;13.40;99.90;;;;;;4961938;28;20062;-70
2023/07/22 02:31:13;;;;;;;18.05;7.10;;;13.40;99.90;;;;;;4958809;28;20082;-73
2023/07/22 02:33:39;;;;;;;15.55;6.82;;;13.30;99.90;;;;;;4979825;28;20038;-69
2023/07/22 02:36:05;;;;;;;17.80;7.40;;;13.30;99.90;;;;;;4958465;28;20054;-70
2023/07/22 02:38:30;;;;;;;14.43;6.53;;;13.30;99.90;;;;;;4961497;28;20031;-70
2023/07/22 02:41:03;;;;;;;14.35;6.30;;;13.30;99.90;;;;;;4956792;28;20038;-70
2023/07/22 02:43:28;;;;;;;16.20;6.43;;;13.20;99.90;;;;;;4960938;28;20070;-69
2023/07/22 02:45:55;;;;;;;15.10;6.60;;;13.30;99.90;;;;;;4980429;28;20456;-70
2023/07/22 02:48:20;;;;;;;15.20;6.03;;;13.30;99.90;;;;;;4961559;28;20069;-69
2023/07/22 02:50:46;;;;;;;15.30;6.03;;;13.20;99.90;;;;;;4994344;28;20065;-69
2023/07/22 02:53:12;;;;;;;13.40;6.05;;;13.20;99.90;;;;;;4975527;28;20038;-69
2023/07/22 02:55:37;;;;;;;17.38;6.88;;;13.20;99.90;;;;;;4994820;28;20039;-69
2023/07/22 02:58:03;;;;;;;14.20;5.70;;;13.20;99.90;;;;;;4982630;28;20050;-70
2023/07/22 03:00:29;;;;;;;12.32;5.90;;;13.20;99.90;;;;;;4958730;28;20066;-69
2023/07/22 03:03:02;;;;;;;16.80;5.90;;;13.20;99.90;;;;;;4962852;28;20057;-69
2023/07/22 03:05:29;;;;;;;13.80;5.95;;;13.20;99.90;;;;;;4959496;28;20061;-69
2023/07/22 03:07:55;;;;;;;13.52;5.60;;;13.20;99.90;;;;;;4976487;28;20034;-70
2023/07/22 03:10:21;;;;;;;15.50;5.95;;;13.20;99.90;;;;;;4977114;28;20110;-70
2023/07/22 03:12:47;;;;;;;11.50;5.90;;;13.20;99.90;;;;;;4978576;28;20044;-69
2023/07/22 03:15:12;;;;;;;12.27;5.38;;;13.20;99.90;;;;;;4972264;28;20039;-69
2023/07/22 03:17:41;;;;;;;11.98;6.10;;;13.20;99.90;;;;;;4975922;28;20415;-70
2023/07/22 03:20:14;;;;;;;13.98;5.28;;;13.20;99.90;;;;;;4957871;28;20041;-72
2023/07/22 03:22:43;;;;;;;11.30;5.65;;;13.20;99.90;;;;;;4968902;28;20042;-70
2023/07/22 03:25:10;;;;;;;13.35;5.03;;;13.20;99.90;;;;;;4984315;28;20099;-68
2023/07/22 03:27:36;;;;;;;10.30;4.95;;;13.20;99.90;;;;;;4970205;28;20042;-69
2023/07/22 03:30:03;;;;;;;12.00;4.30;;;13.20;99.90;;;;;;4980498;28;20049;-70
2023/07/22 03:32:29;;;;;;;12.45;5.18;;;13.20;99.90;;;;;;4961575;28;20151;-70
2023/07/22 03:34:54;;;;;;;11.75;4.78;;;13.20;99.90;;;;;;4991969;28;20556;-69
2023/07/22 03:37:20;;;;;;;11.90;5.30;;;13.20;99.90;;;;;;4959612;28;20049;-69
2023/07/22 03:39:45;;;;;;;10.45;4.45;;;13.20;99.90;;;;;;4978566;28;20110;-69
2023/07/22 03:42:11;;;;;;;11.20;4.97;;;13.10;99.90;;;;;;4958989;28;20047;-69
2023/07/22 03:44:37;;;;;;;10.10;5.07;;;13.20;99.90;;;;;;4983599;28;20105;-69
2023/07/22 03:47:03;;;;;;;9.45;4.10;;;13.20;99.90;;;;;;4978796;28;20145;-71
2023/07/22 03:49:28;;;;;;;10.55;4.38;;;13.20;99.90;;;;;;4979431;28;20041;-68
2023/07/22 03:51:54;;;;;;;11.27;4.50;;;13.20;99.90;;;;;;4984114;28;20030;-70
2023/07/22 03:54:19;;;;;;;11.18;3.97;;;13.20;99.90;;;;;;4980203;28;20046;-69
2023/07/22 03:56:45;;;;;;;8.43;3.60;;;13.20;99.90;;;;;;4981576;28;20488;-71
2023/07/22 03:59:10;;;;;;;13.65;4.72;;;13.20;99.90;;;;;;4969245;28;20042;-70
2023/07/22 04:01:36;;;;;;;8.43;3.75;;;13.20;99.90;;;;;;4986867;28;20113;-71
2023/07/22 04:04:02;;;;;;;7.30;3.60;;;13.30;99.90;;;;;;4982444;28;20157;-69
2023/07/22 04:06:27;;;;;;;12.50;3.72;;;13.30;99.90;;;;;;4979341;28;20089;-69
2023/07/22 04:08:53;;;;;;;6.28;3.50;;;13.30;99.90;;;;;;4979118;28;20049;-69
2023/07/22 04:11:18;;;;;;;8.23;3.60;;;13.40;99.90;;;;;;4960916;28;20091;-69
2023/07/22 04:13:44;;;;;;;9.80;3.67;;;13.40;99.90;;;;;;4965778;28;20049;-69
2023/07/22 04:16:09;;;;;;;8.27;3.47;;;13.40;99.90;;;;;;4978662;28;20031;-69
2023/07/22 04:18:35;;;;;;;13.95;3.63;;;13.40;99.90;;;;;;4964871;28;20399;-69
2023/07/22 04:21:01;;;;;;;8.77;3.50;;;13.40;99.90;;;;;;4982045;28;20042;-69
2023/07/22 04:23:27;;;;;;;7.25;3.47;;;13.40;99.90;;;;;;4993712;28;20034;-68
2023/07/22 04:25:53;;;;;;;9.95;3.45;;;13.40;99.90;;;;;;4967891;28;20034;-69
2023/07/22 04:28:19;;;;;;;7.72;3.35;;;13.50;99.90;;;;;;4983253;28;20031;-70
2023/07/22 04:30:55;;;;;;;9.05;3.20;;;13.50;99.90;;;;;;4979863;28;20050;-70
2023/07/22 04:33:21;;;;;;;10.30;3.78;;;13.50;99.90;;;;;;4978593;28;20041;-70
2023/07/22 04:35:46;;;;;;;10.40;3.72;;;13.50;99.90;;;;;;4986884;28;20034;-69
2023/07/22 04:38:12;;;;;;;9.27;4.10;;;13.60;99.90;;;;;;4978704;28;20045;-68
2023/07/22 04:40:42;;;;;;;10.23;4.35;;;13.60;99.90;;;;;;4977554;28;20045;-71
2023/07/22 04:43:07;;;;;;;8.65;3.78;;;13.70;99.90;;;;;;4980290;28;20036;-72
2023/07/22 04:45:34;;;;;;;11.20;4.57;;;13.70;99.90;;;;;;4982164;28;20035;-71
2023/07/22 04:47:59;;;;;;;11.10;4.43;;;13.70;99.90;;;;;;4968161;28;20026;-70
2023/07/22 04:50:25;;;;;;;11.20;4.32;;;13.80;99.90;;;;;;4993451;28;20034;-71
2023/07/22 04:52:51;;;;;;;10.57;4.70;;;13.80;99.90;;;;;;4980436;28;20043;-69
2023/07/22 04:55:17;;;;;;;13.70;4.57;;;13.90;99.90;;;;;;4960053;28;20042;-69
2023/07/22 04:57:44;;;;;;;15.85;5.45;;;13.90;99.90;;;;;;4961980;28;20484;-68
2023/07/22 05:00:16;;;;;;;9.77;4.57;;;14.00;99.90;;;;;;4965448;28;20026;-69
2023/07/22 05:02:43;;;;;;;13.00;5.03;;;14.00;99.90;;;;;;4961554;28;20401;-69
2023/07/22 05:05:09;;;;;;;14.18;5.75;;;14.00;99.90;;;;;;4962987;28;20030;-68
2023/07/22 05:07:35;;;;;;;12.65;4.47;;;14.10;99.90;;;;;;4985541;28;20050;-69
2023/07/22 05:10:01;;;;;;;18.02;5.68;;;14.10;99.90;;;;;;4963098;28;20034;-70
2023/07/22 05:12:26;;;;;;;17.75;4.88;;;14.20;99.90;;;;;;4959953;28;20493;-71
2023/07/22 05:14:52;;;;;;;15.55;6.70;;;14.20;99.90;;;;;;4964025;28;20043;-69
2023/07/22 05:17:17;;;;;;;15.40;6.20;;;14.20;99.90;;;;;;4963026;28;20035;-69
2023/07/22 05:19:43;;;;;;;17.48;7.10;;;14.30;99.90;;;;;;4979068;28;20039;-70
2023/07/22 05:22:09;;;;;;;13.07;5.50;;;14.40;99.90;;;;;;4961662;28;20388;-71
2023/07/22 05:24:34;;;;;;;18.55;6.60;;;14.40;99.90;;;;;;4981519;28;20472;-70
2023/07/22 05:27:00;;;;;;;13.00;5.53;;;14.50;99.90;;;;;;4981576;28;20034;-68
2023/07/22 05:29:25;;;;;;;17.42;6.25;;;14.60;99.90;;;;;;4980171;28;20026;-71
2023/07/22 05:31:51;;;;;;;16.27;6.53;;;14.60;99.90;;;;;;4960590;28;20496;-69
2023/07/22 05:34:16;;;;;;;21.35;7.20;;;14.60;99.90;;;;;;4978359;28;20081;-69
2023/07/22 05:36:42;;;;;;;20.80;6.85;;;14.70;99.90;;;;;;4961598;28;20026;-70
2023/07/22 05:39:08;;;;;;;22.25;6.95;;;14.70;99.90;;;;;;4977311;28;20829;-71
2023/07/22 05:41:34;;;;;;;21.88;8.05;;;14.80;99.90;;;;;;4976687;28;20045;-70
2023/07/22 05:43:59;;;;;;;23.33;7.65;;;14.80;99.90;;;;;;4962478;28;20041;-70
2023/07/22 05:46:25;;;;;;;22.33;7.47;;;14.90;99.90;;;;;;4976751;28;20113;-69
2023/07/22 05:48:51;;;;;;;18.02;7.30;;;15.00;99.90;;;;;;4979810;28;20101;-70
2023/07/22 05:51:17;;;;;;;21.08;8.35;;;15.00;99.90;;;;;;4959712;28;20109;-70
2023/07/22 05:53:43;;;;;;;18.70;7.90;;;15.10;99.90;;;;;;4978880;28;20416;-70
2023/07/22 05:56:09;;;;;;;19.23;7.70;;;15.10;99.90;;;;;;4960640;28;20097;-70
2023/07/22 05:58:35;;;;;;;20.75;8.18;;;15.20;99.90;;;;;;4963851;28;20439;-70
2023/07/22 06:01:00;;;;;;;19.48;8.32;;;15.20;99.90;;;;;;4962459;28;20485;-69
2023/07/22 06:03:26;;;;;;;20.65;7.45;;;15.30;99.90;;;;;;4979950;28;20030;-69
2023/07/22 06:05:51;;;;;;;25.88;8.07;;;15.30;99.90;;;;;;4982742;28;20034;-68
2023/07/22 06:08:17;;;;;;;20.42;7.35;;;15.50;99.90;;;;;;4969501;28;20038;-68
2023/07/22 06:10:43;;;;;;;21.92;7.60;;;15.50;99.90;;;;;;4978070;28;20034;-71
2023/07/22 06:13:08;;;;;;;22.27;7.85;;;15.60;99.90;;;;;;4958212;28;20031;-69
2023/07/22 06:15:34;;;;;;;18.95;7.32;;;15.80;99.90;;;;;;4963594;28;20031;-70
2023/07/22 06:18:00;;;;;;;16.23;6.68;;;15.90;99.90;;;;;;4976846;28;20030;-70
2023/07/22 06:20:26;;;;;;;18.30;6.97;;;16.10;99.90;;;;;;4979865;28;20034;-70
2023/07/22 06:22:52;;;;;;;22.42;7.97;;;16.20;99.90;;;;;;4959629;28;20031;-71
2023/07/22 06:25:17;;;;;;;17.40;6.47;;;16.30;99.90;;;;;;4978220;28;21518;-69
2023/07/22 06:27:43;;;;;;;18.88;7.68;;;16.40;99.90;;;;;;4962932;28;20106;-69
2023/07/22 06:30:09;;;;;;;19.73;7.60;;;16.40;99.90;;;;;;4990036;28;20467;-71
2023/07/22 06:32:38;;;;;;;17.15;7.18;;;16.50;99.90;;;;;;4979078;28;20515;-69
2023/07/22 06:35:04;;;;;;;20.42;7.82;;;16.50;99.90;;;;;;4976416;28;20019;-71
2023/07/22 06:37:30;;;;;;;19.67;7.88;;;16.60;99.90;;;;;;4982786;28;20030;-70
2023/07/22 06:39:55;;;;;;;18.90;7.18;;;16.70;99.90;;;;;;4980276;28;20041;-69
2023/07/22 06:42:21;;;;;;;19.60;7.13;;;16.80;99.90;;;;;;4961926;28;20033;-69
2023/07/22 06:44:47;;;;;;;17.40;6.03;;;16.80;99.90;;;;;;4979939;28;20031;-70
2023/07/22 06:47:12;;;;;;;16.45;6.00;;;16.90;99.90;;;;;;4976849;28;20404;-71
2023/07/22 06:49:41;;;;;;;18.30;6.75;;;17.00;99.90;;;;;;4978655;28;20133;-70
2023/07/22 06:52:07;;;;;;;17.45;6.93;;;17.00;99.90;;;;;;4977483;28;20262;-69
2023/07/22 06:54:34;;;;;;;15.50;6.50;;;17.10;99.90;;;;;;4960036;28;20046;-71
2023/07/22 06:56:59;;;;;;;16.48;6.88;;;17.20;99.90;;;;;;4978874;28;20042;-71
2023/07/22 06:59:26;;;;;;;21.77;6.57;;;17.20;99.90;;;;;;4963951;28;20488;-70
2023/07/22 07:01:51;;;;;;;15.30;5.53;;;17.30;99.90;;;;;;4967918;28;20093;-68
2023/07/22 07:04:17;;;;;;;19.48;6.05;;;17.40;99.90;;;;;;4981038;28;20867;-69
2023/07/22 07:06:42;;;;;;;16.42;6.25;;;17.50;99.90;;;;;;4979435;28;20134;-68
2023/07/22 07:09:08;;;;;;;13.52;6.13;;;17.50;99.90;;;;;;4975370;28;20039;-70
2023/07/22 07:11:34;;;;;;;13.43;5.88;;;17.50;99.90;;;;;;4959937;28;20042;-70
2023/07/22 07:13:59;;;;;;;15.18;6.25;;;17.40;99.90;;;;;;4957577;28;20050;-70
2023/07/22 07:16:31;;;;;;;15.75;6.45;;;17.30;99.90;;;;;;4974301;28;20110;-71
2023/07/22 07:18:57;;;;;;;21.40;5.90;;;17.20;99.90;;;;;;4981441;28;20078;-69
2023/07/22 07:21:24;;;;;;;16.55;7.07;;;17.30;99.90;;;;;;4977801;28;20049;-69
2023/07/22 07:23:51;;;;;;;18.30;6.95;;;17.50;99.90;;;;;;4983825;28;20038;-69
2023/07/22 07:26:17;;;;;;;16.30;6.50;;;17.70;99.90;;;;;;4985041;28;20038;-72
2023/07/22 07:28:43;;;;;;;11.80;5.80;;;17.70;99.90;;;;;;4979465;28;20039;-70
2023/07/22 07:31:09;;;;;;;18.23;7.05;;;17.80;99.90;;;;;;4979355;28;20031;-70
2023/07/22 07:33:35;;;;;;;16.40;6.60;;;17.80;99.90;;;;;;4980524;28;20396;-68
2023/07/22 07:36:01;;;;;;;14.50;5.80;;;17.90;99.90;;;;;;4978523;28;20038;-68
2023/07/22 07:38:26;;;;;;;20.15;6.40;;;18.00;99.90;;;;;;4976981;28;20121;-70
2023/07/22 07:41:00;;;;;;;14.35;6.20;;;18.10;99.90;;;;;;4988254;28;20054;-69
2023/07/22 07:43:26;;;;;;;12.57;5.35;;;18.30;99.90;;;;;;4986036;28;20022;-69
2023/07/22 07:46:12;;;;;;;12.50;6.45;;;18.50;99.90;;;;;;4989397;28;20050;-70
2023/07/22 07:48:37;;;;;;;13.60;5.78;;;18.50;99.90;;;;;;4971536;28;20053;-71
2023/07/22 07:51:03;;;;;;;15.05;5.75;;;18.70;99.90;;;;;;4989100;28;20137;-70
2023/07/22 07:53:28;;;;;;;10.13;4.72;;;18.80;99.90;;;;;;4989332;28;20038;-70
2023/07/22 07:55:54;;;;;;;17.42;6.30;;;18.90;99.90;;;;;;4989553;28;20046;-69
2023/07/22 07:58:19;;;;;;;11.90;5.32;;;19.00;99.90;;;;;;4970992;28;20031;-68
2023/07/22 08:00:45;;;;;;;16.13;5.85;;;19.20;99.90;;;;;;4970981;28;20117;-70
2023/07/22 08:03:10;;;;;;;12.02;5.25;;;19.40;99.90;;;;;;4965596;28;20042;-69
2023/07/22 08:05:36;;;;;;;14.80;6.30;;;19.60;99.90;;;;;;4972278;28;20566;-70
2023/07/22 08:08:01;;;;;;;16.10;5.05;;;19.80;99.90;;;;;;4988579;28;20724;-69
2023/07/22 08:10:27;;;;;;;10.80;4.75;;;19.70;99.90;;;;;;4989056;28;20105;-68
2023/07/22 08:12:53;;;;;;;14.43;5.03;;;19.60;99.90;;;;;;4989475;28;20038;-70
2023/07/22 08:15:18;;;;;;;12.23;4.40;;;19.60;99.90;;;;;;4988722;28;20038;-68
2023/07/22 08:17:44;;;;;;;9.90;4.63;;;19.60;99.90;;;;;;4971298;28;20030;-67
2023/07/22 08:20:11;;;;;;;11.23;4.82;;;19.80;99.90;;;;;;4988185;28;20092;-68
2023/07/22 08:22:36;;;;;;;11.73;5.03;;;20.00;99.90;;;;;;4988965;28;20045;-68
2023/07/22 08:25:02;;;;;;;12.20;4.25;;;20.20;99.90;;;;;;4970963;28;20656;-70
2023/07/22 08:27:28;;;;;;;11.57;4.78;;;20.40;99.90;;;;;;4970867;28;20034;-69
2023/07/22 08:29:54;;;;;;;11.25;4.68;;;20.50;99.90;;;;;;4971446;28;20514;-69
2023/07/22 08:32:19;;;;;;;9.85;4.15;;;20.60;99.90;;;;;;4988583;28;20054;-70
2023/07/22 08:34:45;;;;;;;11.13;3.83;;;20.60;99.90;;;;;;4989989;28;20047;-68
2023/07/22 08:37:11;;;;;;;7.53;3.67;;;20.70;99.90;;;;;;4984089;28;20137;-69
2023/07/22 08:39:37;;;;;;;7.93;3.65;;;20.80;99.90;;;;;;4985746;28;20109;-69
2023/07/22 08:42:05;;;;;;;7.47;3.30;;;20.70;99.90;;;;;;4989234;28;20194;-69
2023/07/22 08:44:35;;;;;;;5.95;3.00;;;20.70;99.90;;;;;;4985594;28;20038;-69
2023/07/22 08:47:03;;;;;;;7.78;3.35;;;20.80;99.90;;;;;;4985018;28;20022;-69
2023/07/22 08:49:30;;;;;;;12.18;3.33;;;20.70;99.90;;;;;;4972010;28;20041;-69
2023/07/22 08:51:57;;;;;;;5.57;2.65;;;20.60;99.90;;;;;;4972404;28;20026;-69
2023/07/22 08:54:23;;;;;;;9.05;3.17;;;20.80;99.90;;;;;;4971072;28;20093;-68
2023/07/22 08:56:50;;;;;;;6.10;2.63;;;20.90;99.90;;;;;;4971987;28;20087;-69
2023/07/22 08:59:18;;;;;;;8.30;3.17;;;20.90;99.90;;;;;;4968925;28;20034;-68
2023/07/22 09:01:44;;;;;;;6.13;2.80;;;20.80;99.90;;;;;;4972261;28;20042;-69
2023/07/22 09:04:09;;;;;;;8.70;3.22;;;20.80;99.90;;;;;;4994300;28;20125;-69
2023/07/22 09:06:35;;;;;;;7.18;3.15;;;20.80;99.90;;;;;;4979191;28;20061;-69
2023/07/22 09:09:06;;;;;;;7.35;2.60;;;20.90;99.90;;;;;;4986030;28;20042;-69
2023/07/22 09:11:32;;;;;;;6.75;2.38;;;21.10;99.90;;;;;;4985110;28;20038;-69
2023/07/22 09:13:59;;;;;;;7.10;2.60;;;21.30;99.90;;;;;;4988778;28;20042;-70
2023/07/22 09:16:26;;;;;;;9.05;2.85;;;21.20;99.90;;;;;;4971126;28;20092;-68
2023/07/22 09:18:56;;;;;;;4.90;1.92;;;21.10;99.90;;;;;;4989123;28;20034;-69
2023/07/22 09:21:22;;;;;;;7.25;2.13;;;20.90;99.90;;;;;;4986842;28;20058;-68
2023/07/22 09:23:48;;;;;;;6.13;2.28;;;20.80;99.90;;;;;;4987849;28;20031;-69
2023/07/22 09:26:17;;;;;;;6.10;2.03;;;20.70;99.90;;;;;;4970561;28;20108;-69
2023/07/22 09:29:04;;;;;;;4.33;1.70;;;20.50;99.90;;;;;;4985027;28;20042;-69
2023/07/22 09:31:30;;;;;;;5.75;2.42;;;20.40;99.90;;;;;;4962740;28;20269;-70
2023/07/22 09:34:09;;;;;;;2.83;1.70;;;20.30;99.90;;;;;;4973414;28;20384;-69
2023/07/22 09:36:52;;;;;;;3.67;2.00;;;20.40;99.90;;;;;;4973504;28;20114;-69
2023/07/22 09:39:18;;;;;;;5.90;2.10;;;20.40;99.90;;;;;;4968267;28;20038;-70
2023/07/22 09:41:44;;;;;;;4.40;2.17;;;20.40;99.90;;;;;;4965897;28;20026;-69
2023/07/22 09:44:12;;;;;;;9.20;2.47;;;20.50;99.90;;;;;;4968849;28;20027;-69
2023/07/22 09:46:37;;;;;;;4.25;2.05;;;20.50;99.90;;;;;;4978523;28;20121;-70
2023/07/22 09:49:05;;;;;;;5.75;2.22;;;20.60;99.90;;;;;;4969542;28;20137;-69
2023/07/22 09:51:38;;;;;;;4.25;1.98;;;20.60;99.90;;;;;;4983680;28;20817;-70
2023/07/22 09:54:05;;;;;;;5.38;1.95;;;20.80;99.90;;;;;;4978390;28;20039;-69
2023/07/22 09:56:31;;;;;;;9.65;2.83;;;21.10;99.90;;;;;;4996052;28;20041;-69
2023/07/22 09:58:59;;;;;;;3.53;1.80;;;21.30;99.90;;;;;;4974913;28;20050;-69
2023/07/22 10:01:25;;;;;;;4.47;1.40;;;21.60;99.90;;;;;;4962939;28;20453;-69
2023/07/22 10:03:56;;;;;;;4.80;1.58;;;21.60;99.90;;;;;;4979716;28;20695;-70
2023/07/22 10:06:30;;;;;;;;;;;21.80;99.90;;;;;;4976632;28;20049;-69
2023/07/22 10:08:56;;;;;;;7.07;1.50;;;21.90;99.90;;;;;;4989446;28;19961;-68
2023/07/22 10:11:26;;;;;;;6.25;1.58;;;21.80;99.90;;;;;;4956855;28;20121;-69
2023/07/22 10:13:54;;;;;;;4.25;1.83;;;21.60;99.90;;;;;;4977736;28;20066;-69
2023/07/22 10:16:20;;;;;;;7.95;1.95;;;21.40;99.90;;;;;;4974890;28;20477;-69
2023/07/22 10:18:48;;;;;;;6.25;1.50;;;21.20;99.90;;;;;;4976185;28;20033;-69
2023/07/22 10:21:14;;;;;;;4.35;1.80;;;21.00;99.90;;;;;;4961331;28;20053;-69
2023/07/22 10:23:40;;;;;;;4.00;1.50;;;20.80;99.90;;;;;;4979482;28;20161;-69
2023/07/22 10:26:07;;;;;;;4.63;1.30;;;20.70;99.90;;;;;;4980494;28;20038;-70
2023/07/22 10:28:33;;;;;;;5.25;1.60;;;20.50;99.90;;;;;;4979372;28;20446;-69
2023/07/22 10:30:59;;;;;;;2.83;1.40;;;20.40;99.90;;;;;;4978682;28;20039;-69
2023/07/22 10:33:25;;;;;;;6.35;1.98;;;20.20;99.90;;;;;;4981981;28;20072;-70
2023/07/22 10:36:09;;;;;;;6.05;1.60;;;20.10;99.90;;;;;;4977905;28;20435;-69
2023/07/22 10:38:35;;;;;;;5.25;1.75;;;20.00;99.90;;;;;;4957368;28;20034;-70
2023/07/22 10:41:10;;;;;;;4.53;1.60;;;19.90;99.90;;;;;;4975724;28;20035;-69
2023/07/22 10:43:36;;;;;;;2.47;1.40;;;19.70;99.90;;;;;;4960774;28;20427;-70
2023/07/22 10:46:35;;;;;;;3.67;1.27;;;19.60;99.90;;;;;;4976663;28;20049;-70
2023/07/22 10:49:10;;;;;;;3.45;1.42;;;19.40;99.90;;;;;;4993132;28;20034;-71
2023/07/22 10:51:37;;;;;;;7.53;2.45;;;19.40;99.90;;;;;;4981532;28;20031;-68
2023/07/22 10:54:03;;;;;;;4.40;1.40;;;19.40;99.90;;;;;;4981667;28;20169;-69
2023/07/22 10:56:28;;;;;;;5.85;1.20;;;19.30;99.90;;;;;;4961400;28;20133;-71
2023/07/22 10:58:54;;;;;;;3.60;0.93;;;19.40;99.90;;;;;;4968643;28;20527;-69
2023/07/22 11:01:28;;;;;;;2.97;0.80;;;19.30;99.90;;;;;;4961560;28;20050;-68
2023/07/22 11:04:17;;;;;;;3.25;1.10;;;19.10;99.90;;;;;;4960530;28;20475;-69
2023/07/22 11:06:48;;;;;;;2.53;0.95;;;18.90;99.90;;;;;;4970576;28;20043;-70
2023/07/22 11:09:29;;;;;;;2.72;0.90;;;18.80;99.90;;;;;;4964258;28;20041;-69
2023/07/22 11:12:00;;;;;;;3.53;1.38;;;18.70;99.90;;;;;;4963909;28;20565;-69
2023/07/22 11:14:27;;;;;;;2.60;1.00;;;18.60;99.90;;;;;;4960858;28;20505;-70
2023/07/22 11:16:53;;;;;;;6.63;0.98;;;18.60;99.90;;;;;;4963170;28;20026;-69
2023/07/22 11:19:22;;;;;;;2.65;1.13;;;18.60;99.90;;;;;;4961986;28;20038;-70
2023/07/22 11:21:49;;;;;;;6.25;1.58;;;18.80;99.90;;;;;;4964917;28;20031;-70
2023/07/22 11:24:19;;;;;;;2.92;1.10;;;19.00;99.90;;;;;;4982120;28;20084;-69
2023/07/22 11:26:46;;;;;;;2.88;1.08;;;19.20;99.90;;;;;;4967145;28;20118;-69
2023/07/22 11:29:12;;;;;;;3.20;0.63;;;19.30;99.90;;;;;;4960033;28;20761;-71
2023/07/22 11:31:46;;;;;;;7.03;1.85;;;19.40;99.90;;;;;;4978703;28;20373;-70
2023/07/22 11:34:14;;;;;;;6.22;0.82;;;19.40;99.90;;;;;;4982741;28;20122;-71
2023/07/22 11:36:40;;;;;;;3.17;1.02;;;19.20;99.90;;;;;;4961847;28;20065;-70
2023/07/22 11:39:12;;;;;;;3.55;0.88;;;19.10;99.90;;;;;;4972760;28;20377;-73
2023/07/22 11:41:38;;;;;;;3.75;1.05;;;18.90;99.90;;;;;;4966272;28;20042;-70
2023/07/22 11:44:08;;;;;;;5.78;1.70;;;18.80;99.90;;;;;;4985230;28;20030;-71
2023/07/22 11:46:35;;;;;;;4.47;1.80;;;18.70;99.90;;;;;;4971735;28;20030;-71
2023/07/22 11:49:01;;;;;;;2.65;0.98;;;18.70;99.90;;;;;;4985843;28;20022;-72
2023/07/22 11:51:27;;;;;;;2.55;1.02;;;18.70;99.90;;;;;;4984290;28;20034;-71
2023/07/22 11:53:54;;;;;;;2.75;1.20;;;18.70;99.90;;;;;;4986605;28;20035;-71
2023/07/22 11:56:27;;;;;;;5.28;1.27;;;18.70;99.90;;;;;;4979928;28;20677;-70
2023/07/22 11:58:56;;;;;;;4.38;1.10;;;18.70;99.90;;;;;;4968921;28;20117;-71
2023/07/22 12:01:22;;;;;;;3.40;1.13;;;18.70;99.90;;;;;;4979890;28;20088;-70
2023/07/22 12:03:48;;;;;;;5.85;1.90;;;18.70;99.90;;;;;;4963315;28;20077;-70
2023/07/22 12:06:15;;;;;;;4.78;1.33;;;18.70;99.90;;;;;;4978177;28;20039;-70
2023/07/22 12:08:46;;;;;;;3.97;1.30;;;18.70;99.90;;;;;;4981920;28;20156;-71
2023/07/22 12:11:23;;;;;;;2.60;1.30;;;18.80;99.90;;;;;;4978077;28;20169;-71
2023/07/22 12:14:13;;;;;;;9.63;1.90;;;18.80;99.90;;;;;;4980833;28;20041;-72
2023/07/22 12:16:41;;;;;;;3.05;1.23;;;18.80;99.90;;;;;;4968992;28;20038;-70
2023/07/22 12:19:08;;;;;;;5.80;1.15;;;18.90;99.90;;;;;;4985362;28;20030;-72
2023/07/22 12:21:34;;;;;;;3.60;1.70;;;18.90;99.90;;;;;;4982453;28;20057;-69
2023/07/22 12:24:01;;;;;;;4.15;0.90;;;18.90;99.90;;;;;;4981815;28;20492;-71
2023/07/22 12:26:26;;;;;;;5.47;1.38;;;18.90;99.90;;;;;;4982821;28;20511;-71
2023/07/22 12:28:52;;;;;;;5.70;0.95;;;19.00;99.90;;;;;;4990613;28;20038;-70
2023/07/22 12:31:18;;;;;;;2.70;0.50;;;19.30;99.90;;;;;;4967732;28;20058;-71
2023/07/22 12:33:43;;;;;;;7.35;0.63;;;19.70;99.90;;;;;;4981434;28;20038;-71
2023/07/22 12:36:09;;;;;;;1.80;0.75;;;20.20;99.90;;;;;;4996504;28;20264;-71
2023/07/22 12:38:35;;;;;;;2.13;0.57;;;20.50;99.90;;;;;;4989343;28;20042;-71